Time;durP1;ratioP1;P1;durP2;ratioP2;P2;SDS_P1;SDS_P2;PMS_P1;PMS_P2;Temp;Humidity;BMP_temperature;BMP_pressure;BME280_temperature;BME280_humidity;BME280_pressure;Samples;Min_cycle;Max_cycle;Signal;HPM_P1;HPM_P2
2023/03/02 00:02:21;;;;;;;17.40;8.77;;;;;;;4.19;100.00;101082.84;5092870;28;20020;-69
2023/03/02 00:04:57;;;;;;;13.40;7.97;;;;;;;4.41;100.00;101120.16;5092615;28;20935;-66
2023/03/02 00:07:33;;;;;;;15.20;7.50;;;;;;;4.40;100.00;101119.28;5092874;28;20036;-69
2023/03/02 00:09:59;;;;;;;15.32;8.50;;;;;;;4.47;100.00;101121.50;5092608;28;20024;-70
2023/03/02 00:12:30;;;;;;;20.92;9.05;;;;;;;4.48;100.00;101112.16;5092708;28;20028;-69
2023/03/02 00:14:55;;;;;;;17.27;8.57;;;;;;;4.34;100.00;101089.06;5091986;28;20035;-71
2023/03/02 00:17:27;;;;;;;14.73;8.40;;;;;;;4.38;100.00;101093.59;5092586;28;20028;-67
2023/03/02 00:20:09;;;;;;;14.68;8.05;;;;;;;4.35;100.00;101090.84;5092570;28;20028;-68
2023/03/02 00:22:35;;;;;;;16.48;8.63;;;;;;;4.26;100.00;101061.16;5092449;28;20024;-70
2023/03/02 00:25:02;;;;;;;16.45;9.02;;;;;;;4.42;100.00;101083.59;5092846;28;20040;-69
2023/03/02 00:27:28;;;;;;;16.08;8.68;;;;;;;4.05;100.00;101023.97;5092165;28;20065;-68
2023/03/02 00:29:55;;;;;;;14.85;9.13;;;;;;;4.36;100.00;101082.41;5092307;28;20032;-68
2023/03/02 00:32:20;;;;;;;23.30;9.68;;;;;;;4.33;100.00;101076.16;5091792;28;20478;-70
2023/03/02 00:34:46;;;;;;;14.75;9.13;;;;;;;3.99;100.00;101015.84;5091970;28;20032;-69
2023/03/02 00:37:11;;;;;;;18.10;9.40;;;;;;;4.32;100.00;101074.38;5092157;28;20036;-69
2023/03/02 00:39:36;;;;;;;15.52;9.13;;;;;;;4.37;100.00;101078.16;5091927;28;20481;-66
2023/03/02 00:42:02;;;;;;;14.88;8.65;;;;;;;4.34;100.00;101063.50;5091773;28;20039;-66
2023/03/02 00:44:27;;;;;;;14.98;8.70;;;;;;;4.41;100.00;101074.16;5091902;28;20107;-68
2023/03/02 00:46:53;;;;;;;17.63;9.98;;;;;;;4.45;100.00;101065.91;5091576;28;20051;-67
2023/03/02 00:49:18;;;;;;;14.00;9.40;;;;;;;4.46;100.00;101067.69;5091667;28;20024;-69
2023/03/02 00:51:44;;;;;;;15.80;9.32;;;;;;;4.37;100.00;101068.84;5091275;28;20032;-69
2023/03/02 00:54:09;;;;;;;16.30;9.90;;;;;;;4.17;100.00;101040.94;5091676;28;20036;-74
2023/03/02 00:56:34;;;;;;;16.23;10.43;;;;;;;4.30;100.00;101071.72;5091653;28;20036;-69
2023/03/02 00:59:27;;;;;;;21.58;10.82;;;;;;;4.31;100.00;101065.84;5091686;28;20044;-69
2023/03/02 01:01:59;;;;;;;16.77;10.35;;;;;;;4.40;100.00;101074.94;5091542;28;20026;-67
2023/03/02 01:04:33;;;;;;;20.45;11.35;;;;;;;4.36;100.00;101061.94;5091344;28;20028;-69
2023/03/02 01:07:00;;;;;;;20.88;11.02;;;;;;;4.40;100.00;101046.81;5091376;28;20060;-73
2023/03/02 01:09:27;;;;;;;17.35;10.02;;;;;;;4.19;100.00;101018.97;5091222;28;20040;-72
2023/03/02 01:11:53;;;;;;;19.08;11.32;;;;;;;4.56;100.00;101065.03;5091655;28;20099;-68
2023/03/02 01:14:18;;;;;;;20.17;10.85;;;;;;;4.66;100.00;101058.88;5091139;28;20136;-69
2023/03/02 01:16:44;;;;;;;30.77;13.18;;;;;;;4.73;100.00;101057.66;5091519;28;20103;-68
2023/03/02 01:19:10;;;;;;;32.90;13.00;;;;;;;4.75;100.00;101056.06;5091036;28;20367;-66
2023/03/02 01:21:35;;;;;;;30.27;13.25;;;;;;;4.79;100.00;101064.06;5090781;28;20098;-66
2023/03/02 01:24:01;;;;;;;36.00;14.43;;;;;;;4.78;100.00;101051.19;5091001;28;20040;-69
2023/03/02 01:26:26;;;;;;;36.50;13.43;;;;;;;4.74;100.00;101044.09;5091159;28;20028;-71
2023/03/02 01:28:55;;;;;;;41.90;15.55;;;;;;;4.31;100.00;100978.94;5091089;28;20035;-69
2023/03/02 01:31:21;;;;;;;21.23;11.27;;;;;;;4.72;100.00;101055.88;5091371;28;20103;-68
2023/03/02 01:33:47;;;;;;;20.33;11.55;;;;;;;4.89;100.00;101054.50;5038531;28;20048;-68
2023/03/02 01:36:12;;;;;;;19.10;10.75;;;;;;;4.98;100.00;101062.78;5090738;28;20047;-69
2023/03/02 01:38:38;;;;;;;19.58;11.25;;;;;;;5.06;100.00;101071.00;5091198;28;20069;-67
2023/03/02 01:41:03;;;;;;;20.23;11.05;;;;;;;4.94;100.00;101069.38;5090719;28;20040;-66
2023/03/02 01:43:29;;;;;;;22.98;10.90;;;;;;;4.69;100.00;101011.38;5090269;28;20024;-67
2023/03/02 01:46:02;;;;;;;23.55;11.85;;;;;;;5.07;100.00;101059.97;5090835;28;20460;-69
2023/03/02 01:48:37;;;;;;;21.65;11.48;;;;;;;5.10;100.00;101060.19;5090501;28;20024;-67
2023/03/02 01:51:05;;;;;;;18.75;11.85;;;;;;;5.11;100.00;101056.84;5090770;28;20028;-72
2023/03/02 01:53:32;;;;;;;20.40;12.27;;;;;;;4.98;100.00;101063.66;5072475;28;20363;-69
2023/03/02 01:55:59;;;;;;;20.98;11.90;;;;;;;5.00;100.00;101059.56;5090400;28;20065;-73
2023/03/02 01:58:26;;;;;;;19.77;10.98;;;;;;;5.01;100.00;101050.22;5090126;28;20241;-69
2023/03/02 02:00:53;;;;;;;29.73;12.55;;;;;;;5.15;100.00;101066.53;5090534;28;20135;-69
2023/03/02 02:03:23;;;;;;;34.13;14.07;;;;;;;5.17;100.00;101070.06;5090000;28;20027;-69
2023/03/02 02:06:00;;;;;;;23.30;11.70;;;;;;;5.12;100.00;101074.88;5090368;28;20482;-73
2023/03/02 02:08:27;;;;;;;17.33;11.63;;;;;;;4.98;100.00;101063.66;5090448;28;20032;-71
2023/03/02 02:10:53;;;;;;;19.40;11.95;;;;;;;4.85;100.00;101073.84;5090241;28;20554;-67
2023/03/02 02:13:19;;;;;;;21.05;11.65;;;;;;;4.83;100.00;101065.19;5090098;28;20039;-69
2023/03/02 02:15:44;;;;;;;16.40;11.02;;;;;;;4.99;100.00;101082.50;5089915;28;20028;-69
2023/03/02 02:18:09;;;;;;;18.65;11.98;;;;;;;5.07;100.00;101083.91;5090347;28;20110;-69
2023/03/02 02:20:41;;;;;;;17.65;11.00;;;;;;;5.09;100.00;101084.00;5090368;28;20028;-70
2023/03/02 02:23:26;;;;;;;20.63;12.27;;;;;;;5.13;100.00;101084.31;5076432;28;20028;-68
2023/03/02 02:25:52;;;;;;;22.42;12.85;;;;;;;5.12;100.00;101084.22;5090025;28;20123;-69
2023/03/02 02:28:26;;;;;;;24.30;12.13;;;;;;;5.11;100.00;101085.00;5089568;28;20549;-70
2023/03/02 02:31:04;;;;;;;23.58;13.73;;;;;;;5.01;100.00;101092.03;5090129;28;20027;-69
2023/03/02 02:33:31;;;;;;;24.30;12.25;;;;;;;5.06;100.00;101083.78;5090301;28;20421;-69
2023/03/02 02:36:03;;;;;;;23.52;12.48;;;;;;;5.01;100.00;101083.50;5090003;28;20024;-68
2023/03/02 02:38:30;;;;;;;21.35;11.48;;;;;;;4.80;100.00;101076.09;5089946;28;20024;-71
2023/03/02 02:41:02;;;;;;;30.73;12.57;;;;;;;4.42;100.00;101012.91;5090297;28;20039;-70
2023/03/02 02:43:31;;;;;;;22.92;12.27;;;;;;;4.78;100.00;101069.09;5089652;28;20526;-67
2023/03/02 02:45:58;;;;;;;19.88;11.88;;;;;;;4.93;100.00;101072.69;5089874;28;20459;-70
2023/03/02 02:48:25;;;;;;;22.50;11.55;;;;;;;5.11;100.00;101088.44;5089807;28;20023;-70
2023/03/02 02:50:59;;;;;;;18.38;10.77;;;;;;;4.86;100.00;101043.25;5089724;28;20060;-66
2023/03/02 02:53:57;;;;;;;17.98;11.18;;;;;;;5.11;100.00;101083.34;5089629;28;20406;-66
2023/03/02 02:56:28;;;;;;;18.05;11.40;;;;;;;5.14;100.00;101086.09;5026782;28;20041;-69
2023/03/02 02:58:56;;;;;;;23.45;12.02;;;;;;;5.08;100.00;101087.34;5026954;28;20077;-69
2023/03/02 03:01:24;;;;;;;17.38;11.13;;;;;;;4.94;100.00;101074.47;5026690;28;20053;-69
2023/03/02 03:03:54;;;;;;;20.58;11.75;;;;;;;4.81;100.00;101065.06;5027094;28;20041;-70
2023/03/02 03:06:24;;;;;;;;;;;;;;;4.72;100.00;101071.22;5027599;28;20501;-66
2023/03/02 03:08:54;;;;;;;19.52;10.93;;;;;;;4.63;100.00;101072.34;5027280;28;19917;-70
2023/03/02 03:11:22;;;;;;;19.27;11.60;;;;;;;4.58;100.00;101070.25;5027106;28;20068;-70
2023/03/02 03:13:53;;;;;;;20.88;11.98;;;;;;;4.58;100.00;101070.25;5027117;28;20042;-67
2023/03/02 03:16:19;;;;;;;20.00;12.02;;;;;;;4.44;100.00;101056.50;5026959;28;20488;-72
2023/03/02 03:18:48;;;;;;;25.25;13.13;;;;;;;4.40;100.00;101057.03;5010554;28;20057;-69
2023/03/02 03:21:17;;;;;;;19.80;12.00;;;;;;;4.37;100.00;101057.72;5026870;28;20038;-69
2023/03/02 03:23:43;;;;;;;22.02;13.20;;;;;;;4.41;100.00;101061.38;5026967;28;20179;-69
2023/03/02 03:26:08;;;;;;;17.05;11.32;;;;;;;4.37;100.00;101058.63;5026798;28;20496;-72
2023/03/02 03:28:34;;;;;;;18.67;12.57;;;;;;;4.34;100.00;101049.84;5026872;28;20040;-71
2023/03/02 03:31:00;;;;;;;19.90;12.52;;;;;;;4.41;100.00;101069.03;5027146;28;20033;-67
2023/03/02 03:33:26;;;;;;;19.30;11.45;;;;;;;4.16;100.00;101026.38;5064203;28;20079;-68
2023/03/02 03:35:52;;;;;;;21.10;12.02;;;;;;;4.40;100.00;101062.16;5091911;28;20056;-69
2023/03/02 03:38:17;;;;;;;19.52;13.80;;;;;;;4.46;100.00;101078.84;5093126;28;20028;-66
2023/03/02 03:40:43;;;;;;;22.15;13.02;;;;;;;4.01;100.00;100988.75;5092875;28;20105;-67
2023/03/02 03:43:08;;;;;;;21.15;12.70;;;;;;;4.51;100.00;101074.03;5092880;28;20055;-69
2023/03/02 03:45:34;;;;;;;21.88;12.15;;;;;;;4.61;100.00;101073.91;5092807;28;20028;-66
2023/03/02 03:48:00;;;;;;;20.92;12.10;;;;;;;4.59;100.00;101090.81;5057175;28;20040;-69
2023/03/02 03:50:26;;;;;;;22.33;13.25;;;;;;;4.60;100.00;101081.44;5092891;28;20504;-69
2023/03/02 03:52:51;;;;;;;23.70;12.73;;;;;;;4.55;100.00;101091.38;5092813;28;20111;-69
2023/03/02 03:55:18;;;;;;;20.02;13.13;;;;;;;4.48;100.00;101077.25;5092642;28;20456;-67
2023/03/02 03:57:43;;;;;;;20.08;11.90;;;;;;;4.51;100.00;101085.16;5074383;28;20052;-67
2023/03/02 04:00:13;;;;;;;21.40;11.90;;;;;;;4.59;100.00;101083.13;5092544;28;20024;-71
2023/03/02 04:02:40;;;;;;;16.92;11.63;;;;;;;4.60;100.00;101079.81;5092726;28;20017;-67
2023/03/02 04:05:07;;;;;;;21.67;12.88;;;;;;;4.27;100.00;101022.94;5069642;28;20031;-70
2023/03/02 04:07:36;;;;;;;20.50;13.05;;;;;;;4.52;100.00;101079.28;5053001;28;20062;-70
2023/03/02 04:10:04;;;;;;;20.25;13.13;;;;;;;4.26;100.00;101028.84;5069897;28;20122;-70
2023/03/02 04:12:34;;;;;;;20.08;13.23;;;;;;;4.53;100.00;101075.03;5069509;28;20040;-65
2023/03/02 04:15:01;;;;;;;18.92;12.73;;;;;;;4.49;100.00;101073.03;5069665;28;20164;-71
2023/03/02 04:17:27;;;;;;;24.00;13.90;;;;;;;4.49;100.00;101083.28;5069451;28;20047;-68
2023/03/02 04:19:53;;;;;;;23.10;13.93;;;;;;;4.49;100.00;101075.59;5069439;28;20453;-66
2023/03/02 04:22:19;;;;;;;20.58;13.18;;;;;;;4.26;100.00;101021.19;5069428;28;20037;-69
2023/03/02 04:24:45;;;;;;;23.00;13.55;;;;;;;4.42;100.00;101061.47;5069316;28;20029;-69
2023/03/02 04:27:11;;;;;;;19.80;12.10;;;;;;;4.56;100.00;101088.06;5069224;28;20889;-66
2023/03/02 04:29:36;;;;;;;28.70;14.18;;;;;;;4.56;100.00;101080.38;5069386;28;20079;-70
2023/03/02 04:32:02;;;;;;;25.52;13.80;;;;;;;4.55;100.00;101078.59;5069125;28;20157;-70
2023/03/02 04:34:28;;;;;;;29.67;14.93;;;;;;;4.62;100.00;101074.78;5069352;28;20066;-70
2023/03/02 04:36:53;;;;;;;26.27;14.15;;;;;;;4.70;100.00;101076.22;5069284;28;20120;-69
2023/03/02 04:39:20;;;;;;;21.25;13.10;;;;;;;4.68;100.00;101080.34;5055741;28;20082;-69
2023/03/02 04:41:46;;;;;;;25.05;14.32;;;;;;;4.66;100.00;101079.34;5073318;28;20071;-67
2023/03/02 04:44:12;;;;;;;28.17;15.20;;;;;;;4.65;100.00;101078.47;5078375;28;20032;-69
2023/03/02 04:46:38;;;;;;;25.20;15.05;;;;;;;4.65;100.00;101083.56;5091622;28;20031;-69
2023/03/02 04:49:04;;;;;;;21.85;14.52;;;;;;;4.66;100.00;101089.56;5091833;28;20024;-67
2023/03/02 04:51:35;;;;;;;23.85;15.02;;;;;;;4.69;100.00;101083.00;5091742;28;20020;-70
2023/03/02 04:54:04;;;;;;;24.73;15.95;;;;;;;4.67;100.00;101081.13;5078362;28;20038;-70
2023/03/02 04:56:30;;;;;;;26.95;15.30;;;;;;;4.58;100.00;101077.91;5091618;28;20064;-70
2023/03/02 04:58:56;;;;;;;25.73;15.40;;;;;;;4.60;100.00;101087.47;5091714;28;20464;-69
2023/03/02 05:01:22;;;;;;;27.25;15.57;;;;;;;4.67;100.00;101084.56;5091457;28;20026;-72
2023/03/02 05:03:48;;;;;;;24.70;17.02;;;;;;;4.59;100.00;101051.56;5091723;28;20085;-68
2023/03/02 05:06:14;;;;;;;29.38;15.80;;;;;;;4.63;100.00;101072.34;5091698;28;20103;-69
2023/03/02 05:08:39;;;;;;;34.05;17.98;;;;;;;4.76;100.00;101096.22;5072761;28;20031;-66
2023/03/02 05:11:06;;;;;;;36.63;18.00;;;;;;;4.80;100.00;101093.13;5091152;28;20039;-68
2023/03/02 05:13:32;;;;;;;29.95;17.30;;;;;;;4.67;100.00;101081.13;5091037;28;20063;-69
2023/03/02 05:15:58;;;;;;;46.92;20.35;;;;;;;4.56;100.00;101048.78;5091400;28;20040;-68
2023/03/02 05:18:24;;;;;;;57.30;21.95;;;;;;;4.86;100.00;101096.09;5072662;28;20039;-69
2023/03/02 05:20:51;;;;;;;47.67;20.50;;;;;;;4.85;100.00;101094.31;5082536;28;20546;-66
2023/03/02 05:23:25;;;;;;;44.10;19.42;;;;;;;4.86;100.00;101089.31;5091130;28;20032;-70
2023/03/02 05:25:54;;;;;;;37.95;20.00;;;;;;;4.91;100.00;101104.09;5091074;28;20152;-67
2023/03/02 05:28:21;;;;;;;31.90;18.50;;;;;;;4.88;100.00;101094.53;5091022;28;20032;-71
2023/03/02 05:30:48;;;;;;;27.58;16.80;;;;;;;4.78;100.00;101077.63;5090640;28;20028;-71
2023/03/02 05:33:14;;;;;;;29.58;18.30;;;;;;;4.88;100.00;101107.31;5090778;28;20411;-72
2023/03/02 05:35:39;;;;;;;40.47;19.88;;;;;;;4.88;100.00;101097.09;5090206;28;20035;-68
2023/03/02 05:38:05;;;;;;;35.95;19.35;;;;;;;4.89;100.00;101095.44;5090982;28;20039;-67
2023/03/02 05:40:31;;;;;;;43.13;21.23;;;;;;;4.91;100.00;101099.88;5090708;28;20028;-68
2023/03/02 05:42:56;;;;;;;40.78;20.85;;;;;;;4.90;100.00;101098.09;5090777;28;20032;-72
2023/03/02 05:45:28;;;;;;;47.65;22.08;;;;;;;4.70;100.00;101059.19;5071553;28;20502;-70
2023/03/02 05:47:54;;;;;;;51.00;21.80;;;;;;;5.02;100.00;101108.28;5090618;28;20024;-71
2023/03/02 05:50:20;;;;;;;46.85;21.23;;;;;;;4.97;100.00;101105.41;5090327;28;20035;-71
2023/03/02 05:52:46;;;;;;;58.40;23.55;;;;;;;4.94;100.00;101105.19;5090492;28;20028;-69
2023/03/02 05:55:13;;;;;;;48.92;21.30;;;;;;;5.00;100.00;101105.63;5090579;28;20016;-71
2023/03/02 05:57:39;;;;;;;59.53;23.38;;;;;;;5.11;100.00;101115.69;5090016;28;20072;-70
2023/03/02 06:00:06;;;;;;;41.35;20.15;;;;;;;5.01;100.00;101111.66;5090054;28;20498;-69
2023/03/02 06:02:31;;;;;;;33.90;19.15;;;;;;;5.06;100.00;101105.16;5072486;28;20024;-71
2023/03/02 06:04:57;;;;;;;38.80;18.80;;;;;;;5.17;100.00;101121.25;5089948;28;20043;-71
2023/03/02 06:07:22;;;;;;;35.45;17.85;;;;;;;4.81;100.00;101066.72;5090888;28;20031;-69
2023/03/02 06:09:48;;;;;;;38.65;17.98;;;;;;;5.17;100.00;101118.69;5090233;28;20031;-69
2023/03/02 06:12:13;;;;;;;41.08;19.48;;;;;;;5.22;100.00;101122.47;5090453;28;20032;-72
2023/03/02 06:14:39;;;;;;;45.45;21.13;;;;;;;5.25;100.00;101124.34;5090650;28;20153;-72
2023/03/02 06:17:05;;;;;;;38.90;18.75;;;;;;;5.28;100.00;101133.16;5072734;28;20482;-72
2023/03/02 06:19:30;;;;;;;35.75;18.50;;;;;;;5.27;100.00;101131.34;5089958;28;20036;-71
2023/03/02 06:21:56;;;;;;;38.30;18.02;;;;;;;5.28;100.00;101128.03;5090450;28;20483;-69
2023/03/02 06:24:21;;;;;;;38.95;17.92;;;;;;;5.05;100.00;101099.91;5090141;28;20012;-71
2023/03/02 06:26:46;;;;;;;31.25;18.15;;;;;;;5.14;100.00;101110.81;5077545;28;20040;-71
2023/03/02 06:29:13;;;;;;;34.63;18.73;;;;;;;5.22;100.00;101121.56;5085276;28;20444;-71
2023/03/02 06:31:38;;;;;;;49.83;19.58;;;;;;;4.99;100.00;101062.88;5040889;28;20071;-69
2023/03/02 06:34:04;;;;;;;37.80;17.77;;;;;;;5.31;100.00;101102.63;5084784;28;20099;-71
2023/03/02 06:36:29;;;;;;;41.88;16.48;;;;;;;5.28;100.00;101122.91;5090022;28;20494;-72
2023/03/02 06:38:55;;;;;;;38.30;17.45;;;;;;;5.27;100.00;101126.25;5089418;28;20489;-71
2023/03/02 06:41:21;;;;;;;41.50;19.52;;;;;;;5.21;100.00;101110.47;5090118;28;20511;-73
2023/03/02 06:43:46;;;;;;;32.05;18.92;;;;;;;5.18;100.00;101110.22;5090256;28;20024;-70
2023/03/02 06:46:12;;;;;;;41.53;19.20;;;;;;;5.28;100.00;101122.91;5089323;28;20099;-73
2023/03/02 06:48:37;;;;;;;36.75;18.80;;;;;;;5.28;100.00;101116.88;5073609;28;20158;-72
2023/03/02 06:51:06;;;;;;;36.85;18.25;;;;;;;5.28;100.00;101115.22;5068635;28;20437;-73
2023/03/02 06:53:31;;;;;;;42.97;17.42;;;;;;;5.30;100.00;101113.63;5069719;28;20103;-74
2023/03/02 06:55:57;;;;;;;54.85;17.50;;;;;;;5.44;100.00;101124.81;5068731;28;20104;-72
2023/03/02 06:58:22;;;;;;;34.92;17.55;;;;;;;5.13;100.00;101075.75;5069391;28;20043;-70
2023/03/02 07:00:48;;;;;;;33.55;17.30;;;;;;;5.41;100.00;101116.94;5091581;28;20031;-70
2023/03/02 07:03:13;;;;;;;34.50;16.52;;;;;;;5.41;100.00;101119.50;5089304;28;20514;-70
2023/03/02 07:05:38;;;;;;;46.42;16.30;;;;;;;5.45;100.00;101130.84;5090041;28;20103;-71
2023/03/02 07:08:04;;;;;;;29.85;15.50;;;;;;;5.27;100.00;101133.00;5089734;28;20091;-75
2023/03/02 07:10:29;;;;;;;28.83;15.98;;;;;;;5.29;100.00;101131.47;5093826;28;20030;-70
2023/03/02 07:12:55;;;;;;;31.17;16.98;;;;;;;5.45;100.00;101128.28;5093658;28;20051;-75
2023/03/02 07:15:21;;;;;;;36.00;17.73;;;;;;;5.33;100.00;101105.28;5093634;28;20539;-69
2023/03/02 07:17:46;;;;;;;29.00;15.10;;;;;;;5.49;100.00;101133.69;5092680;28;20089;-71
2023/03/02 07:20:14;;;;;;;28.42;16.85;;;;;;;5.48;100.00;101143.84;5093333;28;20040;-69
2023/03/02 07:22:41;;;;;;;35.88;23.17;;;;;;;5.40;100.00;101137.31;5093312;28;20032;-71
2023/03/02 07:25:08;;;;;;;38.17;20.08;;;;;;;5.46;100.00;101138.63;5093447;28;20458;-71
2023/03/02 07:27:33;;;;;;;39.55;17.23;;;;;;;5.55;100.00;101140.91;5093271;28;20084;-75
2023/03/02 07:29:59;;;;;;;36.50;21.48;;;;;;;5.45;100.00;101126.59;5093483;28;20455;-71
2023/03/02 07:32:24;;;;;;;36.50;18.67;;;;;;;5.48;100.00;101139.63;5092907;28;20470;-71
2023/03/02 07:34:50;;;;;;;36.65;19.95;;;;;;;5.48;100.00;101139.63;5093146;28;20024;-71
2023/03/02 07:37:15;;;;;;;42.78;25.75;;;;;;;5.53;100.00;101136.47;5093256;28;20020;-69
2023/03/02 07:39:41;;;;;;;31.20;17.42;;;;;;;5.52;100.00;101148.41;5093355;28;20036;-69
2023/03/02 07:42:07;;;;;;;38.42;21.60;;;;;;;5.49;100.00;101150.75;5093200;28;20036;-71
2023/03/02 07:44:33;;;;;;;30.48;15.50;;;;;;;5.48;100.00;101144.75;5093240;28;20024;-71
2023/03/02 07:46:59;;;;;;;33.08;16.70;;;;;;;5.59;100.00;101142.03;5094488;28;20498;-74
2023/03/02 07:52:47;;;;;;;132.50;73.85;;;;;;;5.64;100.00;101138.09;5159458;22;20131;-70
2023/03/02 07:55:12;;;;;;;76.20;48.70;;;;;;;5.61;100.00;101143.03;5053474;28;20468;-69
2023/03/02 07:57:38;;;;;;;39.38;19.60;;;;;;;5.67;100.00;101131.50;5053372;28;20025;-70
2023/03/02 08:00:04;;;;;;;35.70;20.40;;;;;;;5.69;100.00;101135.84;5052961;28;20517;-70
2023/03/02 08:02:29;;;;;;;53.72;40.03;;;;;;;5.63;100.00;101126.97;5053085;28;20467;-69
2023/03/02 08:04:55;;;;;;;48.35;18.85;;;;;;;5.43;100.00;101094.00;5053376;28;20108;-69
2023/03/02 08:07:20;;;;;;;56.38;36.67;;;;;;;5.74;100.00;101134.47;5053355;28;20033;-69
2023/03/02 08:09:46;;;;;;;42.92;19.83;;;;;;;5.78;100.00;101131.31;5053302;28;20482;-69
2023/03/02 08:12:11;;;;;;;32.22;17.27;;;;;;;5.82;100.00;101144.47;5053170;28;20453;-69
2023/03/02 08:14:37;;;;;;;76.05;23.23;;;;;;;5.88;100.00;101137.97;5053133;28;20356;-69
2023/03/02 08:17:04;;;;;;;40.17;18.17;;;;;;;5.87;100.00;101139.66;5053214;28;20505;-69
2023/03/02 08:19:30;;;;;;;29.67;17.50;;;;;;;5.93;100.00;101145.19;5053073;28;20064;-69
2023/03/02 08:21:55;;;;;;;47.53;31.35;;;;;;;5.80;100.00;101114.38;5052391;28;20063;-69
2023/03/02 08:24:20;;;;;;;28.45;19.75;;;;;;;5.81;100.00;101145.22;5052988;28;20036;-69
2023/03/02 08:26:46;;;;;;;42.25;18.90;;;;;;;5.90;100.00;101147.53;5052874;28;20036;-70
2023/03/02 08:29:12;;;;;;;42.63;20.42;;;;;;;6.05;100.00;101137.44;5052898;28;20028;-71
2023/03/02 08:31:38;;;;;;;32.40;22.30;;;;;;;6.09;100.00;101143.66;5017245;28;20037;-69
2023/03/02 08:34:03;;;;;;;35.17;18.05;;;;;;;5.74;100.00;101075.56;5052885;28;20056;-69
2023/03/02 08:36:29;;;;;;;24.85;14.32;;;;;;;6.10;100.00;101141.19;5052837;28;20029;-69
2023/03/02 08:38:54;;;;;;;28.63;14.82;;;;;;;6.17;100.00;101126.19;5052585;28;20025;-70
2023/03/02 08:41:22;;;;;;;33.25;15.73;;;;;;;6.07;100.00;101120.50;5052594;28;20125;-70
2023/03/02 08:43:48;;;;;;;20.05;13.13;;;;;;;6.17;100.00;101129.69;5052354;28;20175;-68
2023/03/02 08:46:16;;;;;;;28.63;16.08;;;;;;;6.10;100.00;101148.00;5052548;28;20163;-68
2023/03/02 08:48:42;;;;;;;21.42;12.60;;;;;;;6.18;100.00;101136.59;5052417;28;20025;-69
2023/03/02 08:51:13;;;;;;;17.10;11.77;;;;;;;6.16;100.00;101138.16;5052395;28;20063;-71
2023/03/02 08:53:41;;;;;;;19.13;12.25;;;;;;;5.91;100.00;101092.06;5052733;28;20365;-68
2023/03/02 08:56:34;;;;;;;21.63;12.52;;;;;;;6.07;100.00;101135.88;5052282;28;20036;-68
2023/03/02 08:59:04;;;;;;;22.20;12.93;;;;;;;6.11;100.00;101127.59;4990254;28;20049;-68
2023/03/02 09:01:32;;;;;;;17.80;11.98;;;;;;;6.12;100.00;101141.31;4990359;28;20046;-69
2023/03/02 09:03:59;;;;;;;21.20;13.57;;;;;;;6.05;100.00;101131.44;4990071;28;20062;-68
2023/03/02 09:06:26;;;;;;;22.33;13.93;;;;;;;6.06;100.00;101123.84;4990231;28;20125;-68
2023/03/02 09:08:52;;;;;;;18.17;12.35;;;;;;;6.07;100.00;101117.94;4990254;28;20046;-68
2023/03/02 09:11:18;;;;;;;20.90;12.82;;;;;;;6.24;100.00;101123.25;4990276;28;20080;-68
2023/03/02 09:13:44;;;;;;;29.50;15.05;;;;;;;6.30;100.00;101119.41;4994098;28;20068;-69
2023/03/02 09:16:10;;;;;;;26.40;14.50;;;;;;;6.29;100.00;101116.75;4990174;28;20756;-69
2023/03/02 09:18:36;;;;;;;32.83;15.00;;;;;;;6.27;100.00;101108.97;4987214;28;20038;-69
2023/03/02 09:21:02;;;;;;;26.63;14.00;;;;;;;6.17;100.00;101106.59;4989483;28;20164;-70
2023/03/02 09:23:28;;;;;;;25.20;15.57;;;;;;;6.17;100.00;101114.28;4989541;28;20074;-74
2023/03/02 09:25:54;;;;;;;27.52;14.57;;;;;;;6.22;100.00;101110.34;4989479;28;20034;-71
2023/03/02 09:28:23;;;;;;;27.80;15.93;;;;;;;6.29;100.00;101112.53;4987416;28;20042;-70
2023/03/02 09:30:56;;;;;;;26.77;15.50;;;;;;;6.29;100.00;101120.22;4984369;28;20037;-70
2023/03/02 09:33:22;;;;;;;23.05;13.93;;;;;;;6.29;100.00;101114.19;4988832;28;20061;-70
2023/03/02 09:35:48;;;;;;;23.38;15.02;;;;;;;6.36;100.00;101113.78;5018681;28;20518;-71
2023/03/02 09:38:17;;;;;;;26.58;20.50;;;;;;;6.12;100.00;101100.28;5050877;28;20025;-70
2023/03/02 09:40:48;;;;;;;27.33;18.52;;;;;;;5.77;100.00;101081.78;5050764;28;20036;-70
2023/03/02 09:43:21;;;;;;;23.17;15.43;;;;;;;5.68;100.00;101047.84;5050831;28;20134;-70
2023/03/02 09:46:24;;;;;;;25.58;16.65;;;;;;;6.11;100.00;101101.94;5050361;28;20049;-70
2023/03/02 09:49:04;;;;;;;27.92;17.15;;;;;;;6.17;100.00;101101.47;5038895;28;20064;-71
2023/03/02 09:51:44;;;;;;;24.30;15.68;;;;;;;6.29;100.00;101092.00;5050360;28;20070;-69
2023/03/02 09:54:10;;;;;;;26.30;15.77;;;;;;;6.38;100.00;101094.28;5050434;28;20032;-70
2023/03/02 09:56:58;;;;;;;26.25;16.70;;;;;;;6.32;100.00;101078.50;5078251;23;20055;-69
2023/03/02 09:59:33;;;;;;;25.98;16.70;;;;;;;6.33;100.00;101090.53;5048104;28;20045;-68
2023/03/02 10:02:22;;;;;;;29.20;16.08;;;;;;;6.32;100.00;101087.06;5048187;28;20069;-68
2023/03/02 10:04:53;;;;;;;46.17;20.27;;;;;;;6.19;100.00;101056.28;5047550;28;20033;-68
2023/03/02 10:07:28;;;;;;;32.92;16.38;;;;;;;6.15;100.00;101050.06;5048100;28;20029;-68
2023/03/02 10:10:16;;;;;;;34.92;16.85;;;;;;;6.40;100.00;101094.38;5047901;28;20518;-70
2023/03/02 10:12:50;;;;;;;26.02;15.15;;;;;;;5.94;100.00;101010.22;5047535;28;20031;-68
2023/03/02 10:15:25;;;;;;;25.45;17.00;;;;;;;6.39;100.00;101080.66;5027593;28;20034;-68
2023/03/02 10:18:09;;;;;;;44.75;18.65;;;;;;;6.40;100.00;101089.22;5027610;28;20492;-68
2023/03/02 10:20:44;;;;;;;37.45;19.55;;;;;;;6.45;100.00;101093.84;5027336;28;20504;-68
2023/03/02 10:23:33;;;;;;;32.75;18.10;;;;;;;6.45;100.00;101091.28;5027277;28;20029;-69
2023/03/02 10:26:24;;;;;;;34.05;15.27;;;;;;;6.48;100.00;101088.06;5027700;28;20053;-69
2023/03/02 10:29:05;;;;;;;25.90;13.75;;;;;;;6.39;100.00;101083.22;5027801;28;20030;-69
2023/03/02 10:31:32;;;;;;;21.10;14.60;;;;;;;6.33;100.00;101080.28;5027197;28;20044;-69
2023/03/02 10:33:59;;;;;;;31.25;16.98;;;;;;;6.34;100.00;101086.28;5027415;28;20029;-70
2023/03/02 10:36:24;;;;;;;46.05;19.23;;;;;;;6.41;100.00;101086.75;5027620;28;20037;-69
2023/03/02 10:38:52;;;;;;;29.50;16.60;;;;;;;6.43;100.00;101090.31;5027648;28;20415;-71
2023/03/02 10:41:39;;;;;;;18.17;12.88;;;;;;;6.51;100.00;101083.09;5027418;28;20127;-70
2023/03/02 10:44:36;;;;;;;21.17;12.90;;;;;;;6.50;100.00;101083.88;5029075;28;20041;-70
2023/03/02 10:47:03;;;;;;;23.77;14.38;;;;;;;6.53;100.00;101078.06;5027819;28;20048;-69
2023/03/02 10:49:31;;;;;;;19.10;13.98;;;;;;;6.54;100.00;101069.59;5031345;28;20029;-69
2023/03/02 10:52:13;;;;;;;24.70;16.40;;;;;;;6.57;100.00;101073.22;5031498;28;20041;-70
2023/03/02 10:54:39;;;;;;;21.35;13.68;;;;;;;6.34;100.00;101027.28;5031400;28;20067;-69
2023/03/02 10:57:28;;;;;;;21.75;14.80;;;;;;;6.48;100.00;101064.97;5031148;28;20236;-70
2023/03/02 10:59:59;;;;;;;19.80;14.43;;;;;;;6.43;100.00;101059.53;5031332;28;20073;-70
2023/03/02 11:02:27;;;;;;;19.67;14.10;;;;;;;6.47;100.00;101050.38;5031366;28;20044;-69
2023/03/02 11:05:16;;;;;;;36.30;16.38;;;;;;;6.41;100.00;101048.28;5031102;28;20046;-70
2023/03/02 11:07:51;;;;;;;21.75;13.68;;;;;;;6.47;100.00;101046.09;5030966;28;20025;-70
2023/03/02 11:10:22;;;;;;;25.33;16.90;;;;;;;6.39;100.00;101055.03;5031213;28;20039;-70
2023/03/02 11:12:51;;;;;;;21.40;15.18;;;;;;;6.40;100.00;101056.75;5031354;28;20041;-69
2023/03/02 11:15:25;;;;;;;21.17;14.90;;;;;;;6.32;100.00;101053.72;5030839;28;20080;-69
2023/03/02 11:18:01;;;;;;;49.83;31.67;;;;;;;6.23;100.00;101048.03;5031217;28;20045;-69
2023/03/02 11:20:33;;;;;;;29.25;20.02;;;;;;;6.28;100.00;101044.06;5030706;28;20132;-71